East Dennis, Massachusetts
Current Conditions -  °F | °C
As of 2:56 AM on Monday 24 Nov 2014 (Local Time) from KHYA Reporting Station
Overcast Overcast  
Wind Chill: 55°   Ceiling: 5500
Heat Index: 55°   Visibility: 10mi
Dew Point: 52°   Wind: 8mph
Humidity: 89%   Direction: 150°SSE
Pressure: 30.05"   Gusts: 18mph
Location:  41.74°N, 70.16°W
Report Text: KHYA 240756Z 15007G16KT 10SM SCT045 OVC055 13/11 A3005 RMK AO2 SLP176 T01280111
Loading
Personal Weather Stations






























Interactive Weather Map New forecast layout! Learn more

10-Day Weather Forecast

Advertisements
Track Severe Weather on mobile